Airfield :
LOGIN :

Register | Disclaimer

   EN    FR    IT 

 










Legend :    VFR   Marginal VFR   IFR   Intensive IFR   Very Intensive IFR
Visi :
Ceiling :
>= 8 km
>= 3000ft
5 to 8 km
1000 to 3000 ft
1500m to 5 km
500 to 1000 ft
800 to 1500m
200 to 500 ft
< 800m
< 200 ft
Symbols :   Thunderstorms  Fog  Heavy snow  Heavy precipitations  Wind > 20 kt
SIGMETs :     Misc.  Thunderstorms  Icing  Turbulence  Mountain Waves  Volcanic Ashes






- Airport Elevation : 699 ft
- IATA code : PAD


EDLP - Paderborn Lippstadt

CURRENT METAR :
  • 271920Z 30003KT 2500 -RASN BKN002 OVC005 00/M00 Q0999

EXPIRED METARs :
  • 271850Z 30003KT 3400 -RASN BKN002 OVC017 00/M00 Q0999
  • 271820Z VRB02KT 6000 -RASN SCT002 OVC012 01/M00 Q0998
  • 271750Z 01003KT 7000 -RA SCT004 BKN012 OVC029 01/M00 Q0997
  • 271720Z VRB02KT 5000 -RA FEW003 SCT024 OVC029 01/M00 Q0996
  • 271650Z 03004KT 6000 -RASN SCT003 BKN029 01/00 Q0996

TAF TAF EDLP
Valid from the 27 at 18:00 until the 28 at 18:00 UTC


271700Z 2718/2818 03005KT 9999 BKN020
BECMG 2718/2721 27009KT BKN006
TEMPO 2718/2802 3000 -RASN BKN010
PROB40
TEMPO 2718/2801 1200 SN BKN002
TEMPO 2802/2806 4000 BR BKN004
BECMG 2813/2816 19009KT



MET'MAP, your aeronautical weather chart ! - Copyright ORBIFLY December 2007 - Disclaimer

ORBIFLY MET'MAP TEAM :

Programming & Development : Alexandra Zaïnal
Concept & original design : Baudouin d'Aumeries
Assistance for programming : Marc-Olivier Méhu
Technical & hardware support : Manuel Goepfert

Contact : metmap@orbifly.com




SOURCES & CREDITS :

   NOAA